Latest Weather Observations for Kilmore Gap

IDV60801

Issued at 8:32 am EST Friday 21 July 2017 (issued every 30 minutes, with the page automatically refreshed every 10 minutes)

About weather observations | Map of weather stations | Latest weather observations for VIC | Other Formats
Station Details ID: 088162 Name: KILMORE GAP Lat: -37.38 Lon: 144.97 Height: 527.8 m
Data from the previous 72 hours. | See also: Recent months at Kilmore Gap
Date/Time
EST
Temp
°C
App
Temp
°C
Dew
Point
°C
Rel
Hum
%
Delta-T
°C
Wind Press
QNH
hPa
Press
MSL
hPa
Rain since
9am
mm
Dir  Spd
km/h
Gust
km/h
Spd
kts
Gust
kts
21/08:30am 4.6 1.7 4.5 99 0.0 W 9 11 5 6 1023.2 1024.2 3.0
21/08:00am 4.2 1.2 4.1 99 0.0 WSW 9 9 5 5 1023.0 1024.0 3.0
21/07:30am 3.8 0.7 3.7 99 0.0 WSW 9 9 5 5 1022.8 1023.7 3.0
21/07:29am 3.8 0.7 3.7 99 0.0 W 9 9 5 5 1022.8 1023.7 3.0
21/07:00am 3.6 0.5 3.5 99 0.0 WSW 9 11 5 6 1022.3 1023.3 3.0
21/06:30am 3.8 1.1 3.7 99 0.0 SSE 7 9 4 5 1022.0 1023.0 3.0
21/06:00am 3.3 0.1 3.2 99 0.0 SSE 9 9 5 5 1021.6 1022.6 3.0
21/05:45am 3.6 0.5 3.5 99 0.0 S 9 13 5 7 1021.5 1022.5 3.0
21/05:30am 3.4 0.2 3.3 99 0.0 SSW 9 13 5 7 1021.3 1022.3 3.0
21/05:16am 3.3 -0.3 3.2 99 0.0 SSW 11 13 6 7 1021.2 1022.2 3.0
21/05:00am 2.9 -1.5 2.8 99 0.0 S 15 17 8 9 1021.1 1022.0 3.0
21/04:30am 3.4 -0.5 3.3 99 0.0 S 13 17 7 9 1020.8 1021.7 3.0
21/04:15am 3.6 -1.0 3.5 99 0.0 S 17 20 9 11 1020.8 1021.7 3.0
21/04:00am 3.4 -1.3 3.3 99 0.0 S 17 22 9 12 1020.8 1021.7 3.0
21/03:30am 3.5 -1.2 3.4 99 0.0 S 17 22 9 12 1020.8 1021.7 3.0
21/03:00am 3.7 -0.9 3.6 99 0.0 S 17 20 9 11 1020.8 1021.7 3.0
21/02:30am 3.8 -0.8 3.7 99 0.0 SSW 17 24 9 13 1020.7 1021.6 3.0
21/02:00am 3.4 -1.8 3.3 99 0.0 S 20 28 11 15 1020.8 1021.7 3.0
21/01:30am 3.9 -1.3 3.3 96 0.3 S 20 30 11 16 1021.0 1021.9 3.0
21/01:06am 4.4 -0.8 3.5 94 0.4 SSW 20 28 11 15 1021.0 1021.9 3.0
21/01:00am 4.3 -0.9 3.4 94 0.4 SSW 20 28 11 15 1021.1 1022.0 3.0
21/12:30am 4.2 -1.5 3.0 92 0.5 SSW 22 33 12 18 1021.1 1022.0 3.0
21/12:00am 4.2 -1.5 2.9 91 0.5 SSW 22 32 12 17 1021.1 1022.0 2.8
 
Date/Time
EST
Temp
°C
App
Temp
°C
Dew
Point
°C
Rel
Hum
%
Delta-T
°C
Wind Press
QNH
hPa
Press
MSL
hPa
Rain since
9am
mm
Dir  Spd
km/h
Gust
km/h
Spd
kts
Gust
kts
20/11:30pm 4.1 -2.0 2.9 92 0.5 SSW 24 33 13 18 1021.1 1022.0 2.8
20/11:00pm 3.9 -2.2 2.9 93 0.4 SSW 24 37 13 20 1021.0 1021.9 2.8
20/10:30pm 4.1 -2.0 2.6 90 0.6 SSW 24 32 13 17 1020.9 1021.8 2.8
20/10:00pm 4.1 -1.9 3.1 93 0.4 SSW 24 32 13 17 1020.7 1021.6 2.8
20/09:30pm 3.9 -2.6 2.9 93 0.4 SSW 26 39 14 21 1020.8 1021.7 2.8
20/09:00pm 3.6 -2.9 2.4 92 0.5 SSW 26 33 14 18 1020.7 1021.6 2.8
20/08:30pm 3.5 -2.7 2.3 92 0.5 SW 24 32 13 17 1020.7 1021.6 2.8
20/08:00pm 3.3 -2.5 2.4 94 0.4 SW 22 28 12 15 1020.5 1021.4 2.8
20/07:30pm 3.5 -2.7 2.3 92 0.5 SW 24 30 13 16 1020.3 1021.3 2.8
20/07:00pm 3.4 -2.4 2.5 94 0.4 SW 22 30 12 16 1019.9 1020.9 2.8
20/06:30pm 3.5 -1.9 2.5 93 0.4 SW 20 28 11 15 1019.5 1020.4 2.8
20/06:00pm 3.9 -1.5 2.7 92 0.5 SSW 20 28 11 15 1019.4 1020.3 2.8
20/05:30pm 4.0 -1.4 2.7 91 0.5 SSW 20 30 11 16 1019.0 1019.9 2.8
20/05:00pm 4.3 -1.8 2.5 88 0.7 SSW 24 33 13 18 1018.9 1019.8 2.8
20/04:48pm 4.5 -2.0 2.8 89 0.7 SSW 26 35 14 19 1018.9 1019.8 2.8
20/04:34pm 4.7 -1.2 3.8 94 0.4 SSW 24 44 13 24 1018.8 1019.7 2.8
20/04:30pm 4.8 -0.3 4.2 96 0.3 SSW 20 30 11 16 1018.8 1019.7 2.8
20/04:00pm 4.8 -1.0 4.4 97 0.2 SW 24 32 13 17 1018.3 1019.3 2.8
20/03:30pm 4.2 -2.4 4.1 99 0.0 SW 28 35 15 19 1018.2 1019.2 2.8
20/03:16pm 4.3 -1.5 4.2 99 0.0 SSW 24 41 13 22 1018.1 1019.1 2.8
20/03:11pm 4.2 -1.3 4.1 99 0.0 SSW 22 33 12 18 1018.2 1019.2 2.8
20/03:00pm 3.8 -2.5 3.7 99 0.0 S 26 41 14 22 1018.1 1019.1 2.8
20/02:30pm 3.3 -3.1 3.2 99 0.0 SSW 26 56 14 30 1018.0 1019.0 2.2
20/02:28pm 3.2 -4.0 3.1 99 0.0 S 30 59 16 32 1018.0 1019.0 2.2
20/02:25pm 3.2 -4.1 2.6 96 0.2 SSW 30 59 16 32 1018.0 1019.0 2.2
20/02:20pm 4.9 -1.9 3.1 88 0.8 SSW 28 59 15 32 1017.7 1018.6 1.8
20/02:00pm 5.4 -0.2 5.3 99 0.0 SW 24 35 13 19 1017.5 1018.4 1.6
20/01:55pm 5.1 -0.6 5.0 99 0.0 SW 24 39 13 21 1017.4 1018.3 1.6
20/01:51pm 5.3 -0.3 5.2 99 0.0 SSW 24 39 13 21 1017.4 1018.3 1.6
20/01:37pm 4.4 -2.9 4.3 99 0.0 SSW 32 56 17 30 1017.3 1018.2 1.6
20/01:32pm 4.9 -1.6 4.8 99 0.0 SSW 28 54 15 29 1017.2 1018.1 1.4
20/01:30pm 4.9 -1.2 4.8 99 0.0 SSW 26 44 14 24 1017.2 1018.1 1.4
20/01:10pm 4.7 -0.7 4.6 99 0.0 SSW 22 35 12 19 1017.6 1018.5 1.4
20/01:00pm 4.5 -1.3 4.4 99 0.0 SSW 24 35 13 19 1017.5 1018.4 1.4
20/12:56pm 4.3 -1.9 4.2 99 0.0 S 26 39 14 21 1017.6 1018.5 1.4
20/12:44pm 4.7 -2.3 4.1 96 0.3 SW 30 52 16 28 1017.5 1018.4 1.0
20/12:43pm 5.0 -2.4 4.1 94 0.4 SW 32 52 17 28 1017.5 1018.4 0.8
20/12:30pm 6.4 -1.2 3.0 79 1.5 SW 32 50 17 27 1017.3 1018.2 0.0
20/12:00pm 6.5 -0.7 2.8 77 1.6 SW 30 48 16 26 1017.4 1018.3 0.0
20/11:35am 6.2 -1.3 3.2 81 1.3 SW 32 52 17 28 1017.7 1018.6 0.0
20/11:30am 6.1 -1.1 2.9 80 1.4 SW 30 44 16 24 1017.7 1018.6 0.0
20/11:00am 6.1 -0.7 3.1 81 1.3 SW 28 46 15 25 1017.7 1018.6 0.0
20/10:58am 6.0 -0.9 2.8 80 1.4 SW 28 46 15 25 1017.7 1018.6 0.0
20/10:30am 5.9 -0.5 3.2 83 1.2 SW 26 35 14 19 1017.7 1018.6 0.0
20/10:00am 5.7 0.2 3.9 88 0.8 SW 22 43 12 23 1017.6 1018.5 0.0
20/09:30am 5.3 -0.3 5.2 99 0.0 SW 24 43 13 23 1017.2 1018.1 0.0
20/09:29am 5.2 -0.5 5.1 99 0.0 SW 24 43 13 23 1017.2 1018.1 0.0
20/09:05am 4.9 -0.4 4.9 100 0.0 SW 22 33 12 18 1017.0 1017.9 0.0
20/09:00am 4.8 -0.5 4.8 100 0.0 SW 22 35 12 19 1017.0 1017.9 4.6
20/08:30am 4.7 -1.4 4.6 99 0.0 SW 26 39 14 21 1016.6 1017.5 4.6
20/08:00am 4.7 -0.3 4.6 99 0.0 SW 20 37 11 20 1016.3 1017.2 4.4
20/07:30am 4.7 -1.4 4.6 99 0.0 SW 26 35 14 19 1016.2 1017.1 3.8
20/07:18am 4.8 -1.4 4.1 95 0.3 SW 26 39 14 21 1016.2 1017.1 3.8
20/07:16am 4.8 -1.5 3.8 93 0.4 WSW 26 35 14 19 1016.2 1017.1 3.8
20/07:00am 5.2 -0.9 2.9 85 1.0 SW 24 35 13 19 1016.2 1017.1 3.8
20/06:30am 5.1 -0.2 2.8 85 1.0 WSW 20 28 11 15 1016.1 1017.0 3.8
20/06:00am 5.1 -0.6 3.1 87 0.9 WSW 22 32 12 17 1016.0 1016.9 3.6
20/05:30am 5.0 -1.4 3.2 88 0.8 WSW 26 37 14 20 1016.1 1017.0 3.6
20/05:00am 4.9 -1.1 3.1 88 0.8 WSW 24 33 13 18 1015.9 1016.8 3.6
20/04:30am 5.0 -1.1 3.0 87 0.8 WSW 24 35 13 19 1016.0 1016.9 3.6
20/04:00am 4.8 -0.9 2.7 86 0.9 WSW 22 32 12 17 1016.2 1017.1 3.6
20/03:30am 4.9 -0.4 2.9 87 0.8 WSW 20 28 11 15 1016.5 1017.4 3.6
20/03:00am 4.7 -0.6 2.9 88 0.8 WSW 20 26 11 14 1016.5 1017.4 3.6
20/02:30am 4.8 -0.5 2.8 87 0.8 WSW 20 28 11 15 1016.6 1017.5 3.6
20/02:00am 4.6 -0.7 2.8 88 0.8 WSW 20 32 11 17 1016.8 1017.7 3.6
20/01:30am 4.7 -0.6 2.9 88 0.8 WSW 20 32 11 17 1016.8 1017.7 3.6
20/01:00am 4.4 -1.3 2.9 90 0.6 SW 22 28 12 15 1017.1 1018.0 3.6
20/12:30am 4.5 -2.4 2.8 89 0.7 SW 28 37 15 20 1017.3 1018.2 3.6
20/12:00am 4.2 -2.3 2.7 90 0.6 SW 26 35 14 19 1017.3 1018.2 3.6
 
Date/Time
EST
Temp
°C
App
Temp
°C
Dew
Point
°C
Rel
Hum
%
Delta-T
°C
Wind Press
QNH
hPa
Press
MSL
hPa
Rain since
9am
mm
Dir  Spd
km/h
Gust
km/h
Spd
kts
Gust
kts
19/11:30pm 4.2 -3.0 3.2 93 0.4 SSW 30 39 16 21 1017.5 1018.4 3.6
19/11:00pm 4.3 -2.4 3.6 95 0.3 SW 28 37 15 20 1017.7 1018.6 3.6
19/10:30pm 4.4 -2.3 3.7 95 0.3 SW 28 39 15 21 1018.1 1019.1 3.6
19/10:00pm 4.4 -1.9 4.0 97 0.2 SW 26 33 14 18 1017.8 1018.7 3.6
19/09:30pm 4.4 -1.9 4.0 97 0.2 SW 26 37 14 20 1017.7 1018.6 3.6
19/09:00pm 4.7 -1.9 4.0 95 0.3 SW 28 39 15 21 1017.9 1018.8 3.6
19/08:30pm 5.0 -2.0 4.1 94 0.4 SW 30 39 16 21 1017.7 1018.6 3.6
19/08:00pm 5.2 -1.8 4.2 93 0.4 SW 30 43 16 23 1017.3 1018.2 3.6
19/07:30pm 5.1 -1.4 4.5 96 0.3 SSW 28 39 15 21 1016.8 1017.7 3.6
19/07:00pm 5.4 -0.7 4.8 96 0.3 SSW 26 41 14 22 1016.7 1017.6 3.6
19/06:30pm 5.5 -0.9 5.4 99 0.0 SW 28 39 15 21 1016.3 1017.2 3.6
19/06:05pm 5.5 -0.8 5.5 100 0.0 SSW 28 37 15 20 1016.0 1016.9 3.6
19/06:00pm 5.4 -1.0 5.4 100 0.0 SSW 28 41 15 22 1015.9 1016.8 3.6
19/05:30pm 5.8 -0.5 5.8 100 0.0 SSW 28 41 15 22 1015.9 1016.8 3.6
19/05:17pm 6.0 -0.2 6.0 100 0.0 SSW 28 46 15 25 1015.9 1016.8 3.6
19/05:00pm 6.2 0.0 6.2 100 0.0 SSW 28 43 15 23 1015.8 1016.7 3.6
19/04:30pm 6.4 -0.1 6.4 100 0.0 SSW 30 57 16 31 1015.5 1016.4 3.6
19/04:25pm 6.5 0.4 6.5 100 0.0 SSW 28 54 15 29 1015.4 1016.3 3.6
19/04:15pm 6.5 0.4 6.5 100 0.0 SSW 28 41 15 22 1015.4 1016.3 3.6
19/04:00pm 6.5 0.0 6.5 100 0.0 SSW 30 50 16 27 1015.2 1016.1 3.6
19/03:30pm 6.7 -0.3 6.7 100 0.0 SSW 33 57 18 31 1014.6 1015.4 3.4
19/03:00pm 6.8 -0.6 6.8 100 0.0 SSW 35 56 19 30 1013.9 1014.8 3.2
19/02:30pm 7.0 -0.3 7.0 100 0.0 SSW 35 59 19 32 1013.6 1014.5 3.0
19/02:02pm 7.5 -0.1 7.5 100 0.0 SSW 37 59 20 32 1012.9 1013.7 3.0
19/02:00pm 7.6 0.8 7.6 100 0.0 SSW 33 57 18 31 1013.1 1013.9 2.8
19/01:54pm 7.4 0.5 7.4 100 0.0 SSW 33 50 18 27 1013.1 1013.9 2.8
19/01:30pm 7.5 0.8 7.5 100 0.0 SSW 32 52 17 28 1013.0 1013.8 2.6
19/01:26pm 7.5 0.8 7.5 100 0.0 SSW 32 50 17 27 1013.1 1013.9 2.6
19/01:23pm 7.5 0.7 7.5 100 0.0 SSW 33 54 18 29 1013.0 1013.8 2.4
19/01:00pm 7.4 -0.2 7.4 100 0.0 SSW 37 57 20 31 1013.0 1013.8 2.4
19/12:53pm 7.2 0.3 7.2 100 0.0 SSW 33 57 18 31 1012.9 1013.7 2.4
19/12:34pm 7.8 1.0 7.8 100 0.0 SSW 33 52 18 28 1013.0 1013.8 2.0
19/12:33pm 7.8 0.6 7.8 100 0.0 SSW 35 52 19 28 1012.9 1013.7 2.0
19/12:30pm 7.8 0.6 7.8 100 0.0 SSW 35 52 19 28 1012.9 1013.7 2.0
19/12:00pm 7.6 0.4 7.6 100 0.0 SSW 35 56 19 30 1012.9 1013.7 2.0
19/11:30am 7.4 0.1 7.4 100 0.0 SSW 35 61 19 33 1012.6 1013.4 1.6
19/11:25am 7.4 0.7 7.4 100 0.0 SSW 32 61 17 33 1012.6 1013.4 1.4
19/11:14am 7.5 0.8 7.5 100 0.0 SSW 32 46 17 25 1012.6 1013.4 1.2
19/11:08am 7.5 0.8 7.5 100 0.0 SSW 32 59 17 32 1012.5 1013.3 1.2
19/11:00am 7.4 0.5 7.4 100 0.0 SSW 33 52 18 28 1012.3 1013.2 1.2
19/10:30am 7.4 0.5 7.4 100 0.0 SSW 33 54 18 29 1011.8 1012.7 1.0
19/10:09am 7.4 1.1 7.4 100 0.0 SSW 30 50 16 27 1011.5 1012.3 0.8
19/10:00am 7.2 -0.1 7.2 100 0.0 SSW 35 50 19 27 1011.3 1012.1 0.8
19/09:30am 7.4 0.1 7.4 100 0.0 SSW 35 57 19 31 1010.9 1011.7 0.6
19/09:00am 7.3 0.4 7.3 100 0.0 SSW 33 52 18 28 1010.5 1011.3 3.2
19/08:31am 7.3 0.0 7.3 100 0.0 SW 35 54 19 29 1009.8 1010.6 2.2
19/08:30am 7.3 -0.4 7.3 100 0.0 SW 37 54 20 29 1009.7 1010.5 2.2
19/08:00am 7.2 0.5 7.2 100 0.0 SW 32 43 17 23 1009.3 1010.1 2.2
19/07:30am 7.2 0.9 7.2 100 0.0 SSW 30 44 16 24 1008.8 1009.6 1.8
19/07:00am 7.1 1.1 7.1 100 0.0 SW 28 43 15 23 1008.1 1008.9 1.4
19/06:30am 6.9 0.9 6.9 100 0.0 SW 28 41 15 22 1007.9 1008.7 1.4
19/06:00am 6.8 1.1 6.8 100 0.0 SW 26 43 14 23 1007.5 1008.3 1.4
19/05:30am 6.7 1.4 6.7 100 0.0 SW 24 35 13 19 1007.4 1008.2 1.2
19/05:15am 6.5 1.9 6.5 100 0.0 SW 20 37 11 20 1007.2 1008.0 1.2
19/05:00am 6.3 1.8 6.3 100 0.0 SW 19 24 10 13 1007.0 1007.8 1.2
19/04:59am 6.3 1.8 6.3 100 0.0 SW 19 24 10 13 1007.0 1007.8 1.2
19/04:47am 6.2 2.1 6.2 100 0.0 SW 17 24 9 13 1007.0 1007.8 1.2
19/04:30am 6.1 1.6 6.1 100 0.0 WSW 19 26 10 14 1007.0 1007.8 1.2
19/04:27am 6.1 1.6 6.1 100 0.0 WSW 19 26 10 14 1006.9 1007.7 1.2
19/04:10am 5.9 1.7 5.9 100 0.0 WSW 17 24 9 13 1006.8 1007.5 1.2
19/04:01am 5.9 1.7 5.9 100 0.0 W 17 22 9 12 1006.7 1007.4 1.2
19/04:00am 5.9 1.7 5.9 100 0.0 W 17 22 9 12 1006.7 1007.4 1.2
19/03:31am 5.8 2.4 5.8 100 0.0 WNW 13 19 7 10 1006.8 1007.5 1.2
19/03:30am 5.8 2.4 5.8 100 0.0 WNW 13 19 7 10 1006.8 1007.5 1.2
19/03:18am 5.6 2.5 5.6 100 0.0 NW 11 13 6 7 1006.8 1007.5 1.2
19/03:00am 5.4 1.9 5.4 100 0.0 NW 13 19 7 10 1006.8 1007.5 1.0
19/02:45am 5.2 1.6 5.2 100 0.0 NNW 13 17 7 9 1006.8 1007.5 1.0
19/02:30am 4.9 1.3 4.9 100 0.0 NNW 13 17 7 9 1006.8 1007.5 1.0
19/02:00am 4.7 0.7 4.7 100 0.0 NNW 15 19 8 10 1006.6 1007.3 0.8
19/01:30am 4.7 0.3 4.7 100 0.0 NNW 17 20 9 11 1006.2 1007.0 0.8
19/01:26am 4.6 0.2 4.6 100 0.0 NNW 17 20 9 11 1006.2 1007.0 0.8
19/01:00am 3.7 -0.9 3.7 100 0.0 NNW 17 20 9 11 1006.3 1007.1 0.8
19/12:54am 3.6 -1.0 3.6 100 0.0 NNW 17 20 9 11 1006.2 1007.0 0.8
19/12:39am 4.3 -0.2 4.3 100 0.0 NNW 17 22 9 12 1006.2 1007.0 0.8
19/12:30am 4.8 0.0 4.8 100 0.0 NNW 19 20 10 11 1006.3 1007.1 0.8
19/12:06am 5.1 0.4 5.1 100 0.0 NNW 19 22 10 12 1006.6 1007.3 0.8
19/12:00am 5.1 0.4 5.1 100 0.0 NNW 19 22 10 12 1006.7 1007.4 0.8
 
Date/Time
EST
Temp
°C
App
Temp
°C
Dew
Point
°C
Rel
Hum
%
Delta-T
°C
Wind Press
QNH
hPa
Press
MSL
hPa
Rain since
9am
mm
Dir  Spd
km/h
Gust
km/h
Spd
kts
Gust
kts
18/11:37pm 5.0 0.6 5.0 100 0.0 NNW 17 22 9 12 1006.7 1007.4 0.8
18/11:30pm 4.9 0.5 4.9 100 0.0 NNW 17 20 9 11 1006.7 1007.4 0.8
18/11:00pm 4.7 0.3 4.7 100 0.0 N 17 19 9 10 1006.9 1007.7 0.8
18/10:30pm 4.8 0.4 4.8 100 0.0 N 17 20 9 11 1007.0 1007.8 0.8
18/10:00pm 4.5 -0.3 4.5 100 0.0 NNW 19 22 10 12 1006.9 1007.7 0.8
18/09:30pm 5.0 0.3 5.0 100 0.0 N 19 20 10 11 1007.0 1007.8 0.8
18/09:00pm 5.0 0.6 5.0 100 0.0 NNW 17 22 9 12 1007.0 1007.8 0.8
18/08:30pm 4.8 -0.2 4.7 99 0.0 N 20 24 11 13 1006.8 1007.5 0.8
18/08:23pm 4.7 -0.3 4.6 99 0.0 N 20 24 11 13 1006.7 1007.4 0.8
18/08:02pm 4.8 -0.2 4.7 99 0.0 N 20 24 11 13 1006.7 1007.4 0.8
18/08:00pm 4.7 -0.3 4.6 99 0.0 N 20 26 11 14 1006.7 1007.4 0.8
18/07:30pm 5.1 0.4 5.0 99 0.0 N 19 20 10 11 1006.7 1007.4 0.8
18/07:00pm 5.1 0.2 5.0 99 0.0 N 20 26 11 14 1006.8 1007.5 0.8
18/06:30pm 5.9 0.8 5.8 99 0.0 NNW 22 28 12 15 1006.8 1007.5 0.2
18/06:00pm 6.4 1.0 6.3 99 0.0 N 24 30 13 16 1006.5 1007.2 0.0
18/05:30pm 6.3 1.6 5.9 97 0.2 N 20 24 11 13 1006.3 1007.1 0.0
18/05:00pm 6.8 2.4 4.8 87 0.9 NNW 17 20 9 11 1006.2 1007.0 0.0
18/04:30pm 8.2 3.5 5.0 80 1.5 NW 19 26 10 14 1006.2 1007.0 0.0
18/04:00pm 8.5 4.2 5.4 81 1.4 NW 17 24 9 13 1006.2 1007.0 0.0
18/03:30pm 8.1 3.9 5.7 85 1.1 NW 17 24 9 13 1006.3 1007.1 0.0
18/03:00pm 7.8 3.0 5.4 85 1.1 NW 20 28 11 15 1006.5 1007.2 0.0
18/02:33pm 8.2 3.1 6.0 86 1.0 NW 22 32 12 17 1006.1 1006.9 0.0
18/02:30pm 7.9 3.1 5.7 86 1.0 NW 20 30 11 16 1006.2 1007.0 0.0
18/02:00pm 7.0 2.5 6.9 99 0.0 NNW 20 30 11 16 1006.1 1006.9 0.0
18/01:39pm 7.1 1.8 7.0 99 0.0 NNW 24 32 13 17 1005.9 1006.7 0.0
18/01:30pm 7.1 1.8 7.0 99 0.0 NNW 24 33 13 18 1006.0 1006.8 0.0
18/01:22pm 6.7 0.2 6.6 99 0.0 NNW 30 39 16 21 1006.0 1006.8 0.0
18/01:00pm 7.4 1.1 7.3 99 0.0 NNW 30 39 16 21 1006.2 1007.0 0.0
18/12:30pm 6.3 -0.8 6.3 100 0.0 NNW 33 43 18 23 1006.3 1007.1 0.0
18/12:00pm 6.3 -0.6 6.3 100 0.0 NNW 32 43 17 23 1006.9 1007.7 0.0
18/11:30am 6.1 -1.4 6.1 100 0.0 NNW 35 46 19 25 1007.0 1007.8 0.0
18/11:00am 6.0 -1.0 6.0 100 0.0 NNW 32 41 17 22 1007.4 1008.2 0.0
18/10:33am 5.7 -2.3 5.7 100 0.0 NNW 37 46 20 25 1007.3 1008.1 0.0
18/10:30am 5.8 -1.8 5.8 100 0.0 NNW 35 46 19 25 1007.3 1008.1 0.0
18/10:00am 5.7 -2.3 5.7 100 0.0 NNW 37 44 20 24 1007.4 1008.2 0.0
18/09:30am 5.5 -1.8 5.5 100 0.0 NNW 33 43 18 23 1007.5 1008.3 0.0
18/09:29am 5.4 -1.9 5.4 100 0.0 NNW 33 43 18 23 1007.5 1008.3 0.0
18/09:00am 5.5 -1.2 5.5 100 0.0 N 30 41 16 22 1007.6 1008.4 3.4

Other Formats:

Comma delimited format used in spreadsheet applications
http://www.bom.gov.au/fwo/IDV60801/IDV60801.94860.axf

JavaScript Object Notation format (JSON) in row-major order
http://www.bom.gov.au/fwo/IDV60801/IDV60801.94860.json